Time;durP1;ratioP1;P1;durP2;ratioP2;P2;SDS_P1;SDS_P2;PMS_P1;PMS_P2;Temp;Humidity;BMP_temperature;BMP_pressure;BME280_temperature;BME280_humidity;BME280_pressure;Samples;Min_cycle;Max_cycle;Signal;HPM_P1;HPM_P2
2022/08/24 00:00:33;;;;;;;8.93;6.38;;;24.30;66.70;;;;;;5093535;28;20040;-60
2022/08/24 00:02:59;;;;;;;7.57;6.28;;;24.30;66.80;;;;;;5092696;28;20401;-60
2022/08/24 00:05:25;;;;;;;9.65;5.75;;;24.30;66.80;;;;;;5093348;28;20036;-60
2022/08/24 00:07:51;;;;;;;6.78;6.07;;;24.30;66.80;;;;;;5093627;28;20052;-60
2022/08/24 00:10:17;;;;;;;8.77;6.13;;;24.30;66.90;;;;;;5092668;28;20442;-60
2022/08/24 00:12:42;;;;;;;9.05;5.78;;;24.30;66.80;;;;;;5093021;28;20479;-60
2022/08/24 00:15:09;;;;;;;7.50;6.18;;;24.30;66.80;;;;;;5093535;28;20040;-60
2022/08/24 00:17:34;;;;;;;8.13;6.20;;;24.30;66.90;;;;;;5092408;28;20040;-59
2022/08/24 00:20:01;;;;;;;8.13;6.20;;;24.30;66.80;;;;;;5093552;28;20421;-60
2022/08/24 00:22:27;;;;;;;8.15;6.20;;;24.30;66.90;;;;;;5092904;28;20411;-60
2022/08/24 00:24:53;;;;;;;7.93;6.35;;;24.30;66.90;;;;;;5092449;28;20044;-60
2022/08/24 00:27:18;;;;;;;7.75;6.63;;;24.30;66.90;;;;;;5092590;28;20058;-60
2022/08/24 00:29:44;;;;;;;8.25;6.82;;;24.30;66.90;;;;;;5093336;28;20043;-60
2022/08/24 00:32:10;;;;;;;8.80;6.32;;;24.30;66.90;;;;;;5092070;28;20048;-60
2022/08/24 00:34:35;;;;;;;8.82;6.65;;;24.30;67.00;;;;;;5092899;28;20526;-60
2022/08/24 00:37:01;;;;;;;8.98;6.32;;;24.30;67.00;;;;;;5092954;28;20498;-60
2022/08/24 00:39:26;;;;;;;9.77;6.47;;;24.30;67.00;;;;;;5091842;28;20044;-60
2022/08/24 00:41:52;;;;;;;10.32;6.78;;;24.30;67.00;;;;;;5092575;28;20043;-60
2022/08/24 00:44:18;;;;;;;7.90;7.07;;;24.30;67.00;;;;;;5092616;28;20047;-60
2022/08/24 00:46:49;;;;;;;9.93;6.38;;;24.30;67.10;;;;;;5092346;28;20044;-59
2022/08/24 00:49:41;;;;;;;9.45;6.60;;;24.30;67.10;;;;;;5074455;28;20529;-60
2022/08/24 00:52:14;;;;;;;7.45;6.05;;;24.30;67.10;;;;;;5091324;28;20051;-60
2022/08/24 00:54:42;;;;;;;10.10;6.93;;;24.30;67.10;;;;;;5092851;28;20108;-60
2022/08/24 00:57:09;;;;;;;;;;;24.30;67.10;;;;;;5092044;28;20044;-60
2022/08/24 00:59:45;;;;;;;8.00;7.15;;;24.20;66.90;;;;;;5090634;28;19924;-60
2022/08/24 01:02:14;;;;;;;9.10;7.00;;;24.20;67.00;;;;;;5075390;28;20043;-60
2022/08/24 01:04:44;;;;;;;8.40;6.95;;;24.20;67.10;;;;;;5091212;28;20044;-60
2022/08/24 01:07:10;;;;;;;10.25;7.30;;;24.20;67.20;;;;;;5092114;28;20463;-60
2022/08/24 01:09:36;;;;;;;8.35;6.53;;;24.20;67.10;;;;;;5092510;28;20055;-60
2022/08/24 01:12:02;;;;;;;8.52;7.10;;;24.20;67.20;;;;;;5092377;28;20051;-60
2022/08/24 01:14:28;;;;;;;7.53;6.55;;;24.30;67.20;;;;;;5090351;28;20048;-60
2022/08/24 01:19:42;;;;;;;7.78;6.97;;;24.20;67.10;;;;;;5091213;28;20048;-60
2022/08/24 01:22:14;;;;;;;7.53;6.28;;;24.20;67.00;;;;;;5090728;28;20074;-60
2022/08/24 01:24:39;;;;;;;9.57;7.95;;;24.20;67.00;;;;;;5092601;28;20069;-60
2022/08/24 01:27:05;;;;;;;10.63;7.60;;;24.20;67.10;;;;;;5090335;28;20114;-60
2022/08/24 01:29:30;;;;;;;10.27;7.57;;;24.20;67.00;;;;;;5073776;28;20558;-60
2022/08/24 01:31:57;;;;;;;8.13;7.13;;;24.20;67.00;;;;;;5090837;28;20802;-59
2022/08/24 01:34:22;;;;;;;8.65;7.30;;;24.20;67.00;;;;;;5091376;28;20044;-60
2022/08/24 01:36:50;;;;;;;9.18;7.57;;;24.20;67.00;;;;;;5092424;28;20036;-59
2022/08/24 01:39:24;;;;;;;9.07;7.47;;;24.20;67.00;;;;;;5074480;28;20047;-60
2022/08/24 01:41:50;;;;;;;8.57;7.68;;;24.10;67.00;;;;;;5091390;28;20052;-60
2022/08/24 01:44:16;;;;;;;10.35;7.90;;;24.20;67.00;;;;;;5096068;28;20059;-60
2022/08/24 01:46:45;;;;;;;10.43;7.93;;;24.20;67.00;;;;;;5096341;28;20047;-60
2022/08/24 01:49:11;;;;;;;9.10;8.10;;;24.10;66.90;;;;;;5095425;28;20048;-60
2022/08/24 01:51:37;;;;;;;10.32;8.20;;;24.10;66.90;;;;;;5096032;28;20097;-60
2022/08/24 01:54:02;;;;;;;10.82;8.07;;;24.10;66.90;;;;;;5096291;28;20399;-59
2022/08/24 01:56:29;;;;;;;9.27;7.82;;;24.10;66.90;;;;;;5094830;28;20113;-60
2022/08/24 01:58:55;;;;;;;9.48;8.55;;;24.10;66.90;;;;;;5095878;28;20051;-60
2022/08/24 02:01:21;;;;;;;8.60;7.65;;;24.10;66.90;;;;;;5095298;28;20044;-60
2022/08/24 02:03:46;;;;;;;8.27;7.30;;;24.10;66.90;;;;;;5094995;28;20047;-60
2022/08/24 02:06:12;;;;;;;9.20;8.13;;;24.10;66.90;;;;;;5095431;28;20040;-59
2022/08/24 02:08:37;;;;;;;9.27;7.95;;;24.10;67.50;;;;;;5095559;28;20476;-60
2022/08/24 02:11:07;;;;;;;8.27;7.28;;;24.10;67.50;;;;;;5095116;28;20050;-60
2022/08/24 02:13:33;;;;;;;11.15;8.88;;;24.10;66.90;;;;;;5095409;28;20036;-60
2022/08/24 02:15:59;;;;;;;9.25;7.63;;;24.10;66.90;;;;;;5095819;28;20082;-60
2022/08/24 02:18:25;;;;;;;10.23;7.70;;;24.10;66.90;;;;;;5094615;28;20122;-60
2022/08/24 02:20:52;;;;;;;10.15;7.85;;;24.10;66.90;;;;;;5095793;28;20660;-59
2022/08/24 02:23:19;;;;;;;10.63;8.93;;;24.00;66.90;;;;;;5094415;28;20449;-60
2022/08/24 02:25:45;;;;;;;9.33;7.77;;;24.10;66.90;;;;;;5095582;28;20058;-60
2022/08/24 02:28:10;;;;;;;9.60;8.15;;;24.00;66.90;;;;;;5095518;28;20136;-60
2022/08/24 02:30:36;;;;;;;12.00;8.40;;;24.00;66.90;;;;;;5094419;28;20518;-61
2022/08/24 02:33:02;;;;;;;8.98;8.05;;;24.00;66.80;;;;;;5095427;28;20556;-60
2022/08/24 02:35:28;;;;;;;9.90;8.88;;;24.00;66.80;;;;;;5095236;28;20036;-60
2022/08/24 02:37:54;;;;;;;10.50;8.40;;;24.00;66.80;;;;;;5094516;28;20032;-60
2022/08/24 02:40:19;;;;;;;9.95;7.90;;;24.00;66.80;;;;;;5095026;28;20499;-60
2022/08/24 02:42:45;;;;;;;11.60;8.25;;;24.00;66.80;;;;;;5094902;28;20079;-60
2022/08/24 02:45:11;;;;;;;9.90;8.52;;;24.00;66.80;;;;;;5094639;28;20040;-60
2022/08/24 02:47:37;;;;;;;10.02;8.52;;;24.00;67.40;;;;;;5094811;28;20050;-60
2022/08/24 02:50:05;;;;;;;10.07;8.38;;;24.00;66.70;;;;;;5095376;28;20048;-60
2022/08/24 02:52:30;;;;;;;8.95;8.05;;;24.00;66.80;;;;;;5094222;28;20556;-60
2022/08/24 02:54:56;;;;;;;9.00;7.95;;;24.00;66.70;;;;;;5093797;28;20130;-60
2022/08/24 02:57:21;;;;;;;11.82;8.70;;;24.00;66.70;;;;;;5094614;28;20144;-60
2022/08/24 02:59:47;;;;;;;10.65;8.48;;;24.00;66.70;;;;;;5094365;28;20054;-60
2022/08/24 03:02:12;;;;;;;9.82;8.15;;;24.00;66.90;;;;;;5094819;28;20052;-60
2022/08/24 03:04:38;;;;;;;11.10;8.68;;;24.00;66.70;;;;;;5094234;28;20112;-60
2022/08/24 03:07:03;;;;;;;10.20;8.52;;;24.00;66.60;;;;;;5094176;28;20115;-61
2022/08/24 03:09:29;;;;;;;10.75;8.32;;;24.00;66.60;;;;;;5094252;28;20044;-60
2022/08/24 03:11:55;;;;;;;9.43;7.93;;;24.00;66.60;;;;;;5094346;28;20046;-60
2022/08/24 03:14:20;;;;;;;9.07;7.88;;;24.00;66.60;;;;;;5093850;28;20043;-61
2022/08/24 03:16:46;;;;;;;10.95;9.00;;;24.00;66.60;;;;;;5094662;28;20050;-61
2022/08/24 03:19:12;;;;;;;9.85;8.20;;;23.90;66.50;;;;;;5094733;28;20048;-61
2022/08/24 03:21:37;;;;;;;8.43;7.53;;;23.90;66.50;;;;;;5093408;28;20040;-60
2022/08/24 03:24:03;;;;;;;9.10;8.20;;;23.90;66.50;;;;;;5094243;28;20044;-60
2022/08/24 03:26:29;;;;;;;9.75;7.95;;;23.90;66.50;;;;;;5093283;28;20051;-60
2022/08/24 03:28:54;;;;;;;10.43;8.50;;;23.90;66.60;;;;;;5094469;28;20139;-61
2022/08/24 03:31:20;;;;;;;12.02;9.68;;;23.90;66.50;;;;;;5093584;28;20056;-61
2022/08/24 03:33:45;;;;;;;11.63;9.55;;;23.90;66.50;;;;;;5093680;28;20609;-60
2022/08/24 03:36:11;;;;;;;11.57;9.25;;;23.90;66.40;;;;;;5094313;28;20055;-61
2022/08/24 03:38:36;;;;;;;11.23;8.77;;;23.90;66.40;;;;;;5092509;28;20040;-60
2022/08/24 03:41:02;;;;;;;10.55;8.13;;;23.90;66.40;;;;;;5093112;28;20131;-60
2022/08/24 03:43:46;;;;;;;10.50;8.75;;;23.90;66.40;;;;;;5093852;28;20044;-61
2022/08/24 03:46:12;;;;;;;9.20;7.65;;;23.90;66.40;;;;;;5093871;28;20055;-61
2022/08/24 03:48:43;;;;;;;10.95;9.07;;;23.90;66.40;;;;;;5093084;28;20085;-60
2022/08/24 03:51:16;;;;;;;11.43;8.38;;;23.90;66.40;;;;;;5092909;28;20047;-60
2022/08/24 03:53:42;;;;;;;11.48;8.10;;;23.90;66.30;;;;;;5093806;28;20055;-60
2022/08/24 03:56:08;;;;;;;11.25;9.00;;;23.90;66.30;;;;;;5092988;28;20040;-60
2022/08/24 03:58:37;;;;;;;10.77;8.50;;;23.80;66.30;;;;;;5093392;28;20040;-60
2022/08/24 04:01:03;;;;;;;8.93;8.02;;;23.80;66.30;;;;;;5093785;28;20127;-60
2022/08/24 04:03:28;;;;;;;10.43;9.13;;;23.80;66.30;;;;;;5092138;28;20032;-60
2022/08/24 04:05:54;;;;;;;11.93;9.98;;;23.80;66.90;;;;;;5092168;28;20051;-60
2022/08/24 04:08:19;;;;;;;10.63;8.98;;;23.80;66.30;;;;;;5092664;28;20051;-60
2022/08/24 04:10:46;;;;;;;12.68;8.80;;;23.80;66.20;;;;;;5092553;28;20043;-60
2022/08/24 04:13:11;;;;;;;9.38;8.02;;;23.80;66.20;;;;;;5093535;28;20044;-60
2022/08/24 04:15:40;;;;;;;10.48;8.10;;;23.90;66.30;;;;;;5092569;28;20381;-60
2022/08/24 04:18:05;;;;;;;10.13;9.00;;;23.80;66.20;;;;;;5093376;28;20555;-60
2022/08/24 04:20:35;;;;;;;10.15;8.50;;;23.80;66.20;;;;;;5093153;28;20123;-60
2022/08/24 04:23:01;;;;;;;10.45;8.70;;;23.80;66.20;;;;;;5092679;28;20059;-60
2022/08/24 04:25:27;;;;;;;11.40;8.70;;;23.80;66.20;;;;;;5093142;28;20042;-60
2022/08/24 04:27:52;;;;;;;10.93;9.32;;;23.80;66.20;;;;;;5093152;28;20128;-61
2022/08/24 04:30:18;;;;;;;10.88;9.10;;;23.80;66.10;;;;;;5092339;28;20062;-61
2022/08/24 04:32:44;;;;;;;9.80;8.80;;;23.80;66.10;;;;;;5092866;28;20135;-60
2022/08/24 04:35:09;;;;;;;11.15;8.77;;;23.80;66.10;;;;;;5092924;28;20044;-61
2022/08/24 04:37:35;;;;;;;11.02;8.88;;;23.80;66.10;;;;;;5092152;28;20050;-61
2022/08/24 04:40:02;;;;;;;10.05;8.88;;;23.80;66.10;;;;;;5093034;28;20040;-60
2022/08/24 04:42:27;;;;;;;10.20;8.73;;;23.80;66.10;;;;;;5092438;28;20404;-60
2022/08/24 04:44:53;;;;;;;10.02;8.43;;;23.70;66.00;;;;;;5092197;28;20040;-60
2022/08/24 04:47:19;;;;;;;9.40;8.00;;;23.70;66.00;;;;;;5092370;28;20047;-60
2022/08/24 04:49:44;;;;;;;10.75;9.00;;;23.70;66.00;;;;;;5092679;28;20040;-60
2022/08/24 04:52:10;;;;;;;10.43;8.27;;;23.70;66.00;;;;;;5091991;28;20097;-60
2022/08/24 04:54:35;;;;;;;12.18;9.20;;;23.70;66.00;;;;;;5092571;28;20089;-61
2022/08/24 04:57:01;;;;;;;9.20;7.95;;;23.70;65.90;;;;;;5092416;28;20274;-61
2022/08/24 04:59:26;;;;;;;9.60;8.48;;;23.70;65.90;;;;;;5090367;28;20068;-60
2022/08/24 05:01:52;;;;;;;10.50;8.80;;;23.70;66.00;;;;;;5093027;28;20051;-60
2022/08/24 05:04:17;;;;;;;9.80;8.00;;;23.70;66.00;;;;;;5092312;28;20086;-60
2022/08/24 05:06:43;;;;;;;9.60;7.82;;;23.70;66.00;;;;;;5090743;28;20044;-61
2022/08/24 05:09:08;;;;;;;10.32;8.15;;;23.70;66.00;;;;;;5092387;28;20051;-60
2022/08/24 05:11:35;;;;;;;10.23;7.80;;;23.70;66.00;;;;;;5092387;28;20399;-61
2022/08/24 05:14:01;;;;;;;9.77;8.25;;;23.70;66.00;;;;;;5091653;28;20036;-63
2022/08/24 05:16:27;;;;;;;12.38;9.40;;;23.70;66.00;;;;;;5092218;28;20064;-72
2022/08/24 05:18:53;;;;;;;24.15;20.75;;;23.70;66.00;;;;;;5095803;28;20036;-74
2022/08/24 05:21:20;;;;;;;25.58;22.38;;;23.70;65.80;;;;;;5094764;28;20075;-74
2022/08/24 05:23:45;;;;;;;26.27;21.75;;;23.60;65.70;;;;;;5096678;28;20075;-75
2022/08/24 05:26:13;;;;;;;26.63;22.23;;;23.40;65.90;;;;;;5095960;28;20513;-75
2022/08/24 05:28:39;;;;;;;;;;;23.30;66.30;;;;;;5096969;28;20044;-71
2022/08/24 05:31:12;;;;;;;27.63;23.35;;;23.10;66.50;;;;;;5095121;28;19920;-69
2022/08/24 05:33:38;;;;;;;28.33;24.00;;;23.00;67.00;;;;;;5095726;28;20044;-70
2022/08/24 05:36:04;;;;;;;28.55;23.85;;;23.00;67.40;;;;;;5096524;28;20090;-76
2022/08/24 05:38:31;;;;;;;30.73;24.17;;;22.90;67.70;;;;;;5129063;27;20036;-73
2022/08/24 05:40:57;;;;;;;27.30;24.33;;;22.80;68.00;;;;;;5095796;28;20044;-72
2022/08/24 05:43:23;;;;;;;31.15;25.20;;;22.80;68.40;;;;;;5095875;28;20069;-62
2022/08/24 05:45:48;;;;;;;32.72;24.35;;;22.80;68.70;;;;;;5095251;28;20072;-61
2022/08/24 05:48:14;;;;;;;28.25;23.75;;;22.70;69.00;;;;;;5095288;28;20097;-61
2022/08/24 05:50:39;;;;;;;28.67;22.77;;;22.80;69.10;;;;;;5096222;28;20088;-62
2022/08/24 05:53:05;;;;;;;29.08;23.50;;;22.80;69.30;;;;;;5096168;28;20047;-62
2022/08/24 05:55:30;;;;;;;27.85;23.98;;;22.80;69.40;;;;;;5094864;28;20046;-62
2022/08/24 05:57:56;;;;;;;29.10;24.25;;;22.80;69.60;;;;;;5095782;28;20048;-62
2022/08/24 06:00:23;;;;;;;28.05;23.25;;;22.80;69.80;;;;;;5095532;28;20135;-61
2022/08/24 06:02:51;;;;;;;27.85;22.45;;;22.80;70.20;;;;;;5095089;28;20055;-62
2022/08/24 06:05:17;;;;;;;28.00;23.95;;;22.80;70.10;;;;;;5095711;28;20083;-62
2022/08/24 06:07:42;;;;;;;28.50;24.08;;;22.90;70.30;;;;;;5096057;28;20075;-62
2022/08/24 06:10:09;;;;;;;30.48;24.00;;;22.90;70.50;;;;;;5094926;28;20040;-62
2022/08/24 06:12:35;;;;;;;30.30;24.73;;;22.90;70.70;;;;;;5093877;28;20055;-62
2022/08/24 06:15:00;;;;;;;30.25;24.73;;;22.90;70.80;;;;;;5095362;28;20052;-62
2022/08/24 06:17:26;;;;;;;33.10;27.52;;;23.00;70.90;;;;;;5094394;28;20040;-62
2022/08/24 06:19:52;;;;;;;34.58;26.80;;;23.00;71.00;;;;;;5094355;28;20083;-62
2022/08/24 06:22:17;;;;;;;36.67;29.35;;;22.90;71.10;;;;;;5094840;28;20040;-61
2022/08/24 06:27:27;;;;;;;40.33;30.20;;;23.00;71.40;;;;;;5095284;28;20048;-61
2022/08/24 06:29:56;;;;;;;38.83;30.25;;;23.00;71.50;;;;;;5094407;28;20052;-61
2022/08/24 06:32:22;;;;;;;37.83;29.50;;;23.00;71.60;;;;;;5094878;28;20123;-62
2022/08/24 06:34:47;;;;;;;37.40;29.25;;;23.00;71.70;;;;;;5094786;28;20259;-63
2022/08/24 06:37:13;;;;;;;37.33;29.50;;;23.00;71.70;;;;;;5094024;28;20040;-61
2022/08/24 06:39:39;;;;;;;37.70;30.70;;;23.10;71.80;;;;;;5094969;28;20040;-61
2022/08/24 06:42:05;;;;;;;38.17;30.38;;;23.10;71.90;;;;;;5094489;28;20040;-61
2022/08/24 06:44:31;;;;;;;40.92;32.22;;;23.10;71.90;;;;;;5093792;28;20126;-61
2022/08/24 06:46:56;;;;;;;38.25;30.55;;;23.10;71.90;;;;;;5094929;28;20111;-61
2022/08/24 06:49:23;;;;;;;39.05;30.42;;;23.10;72.00;;;;;;5093323;28;20483;-61
2022/08/24 06:51:49;;;;;;;40.00;31.20;;;23.20;72.10;;;;;;5094536;28;20055;-61
2022/08/24 06:54:15;;;;;;;41.17;31.85;;;23.20;72.10;;;;;;5127611;27;20044;-61
2022/08/24 06:56:40;;;;;;;38.20;31.60;;;23.20;72.20;;;;;;5093336;28;20043;-61
2022/08/24 06:59:06;;;;;;;42.85;33.88;;;23.20;72.20;;;;;;5094249;28;20062;-61
2022/08/24 07:01:31;;;;;;;44.90;34.85;;;23.20;72.20;;;;;;5094809;28;20066;-61
2022/08/24 07:03:57;;;;;;;39.50;31.73;;;23.20;72.30;;;;;;5093973;28;20097;-61
2022/08/24 07:06:23;;;;;;;44.85;33.28;;;23.20;72.30;;;;;;5093732;28;20391;-63
2022/08/24 07:08:48;;;;;;;41.83;32.90;;;23.30;72.40;;;;;;5094818;28;20093;-63
2022/08/24 07:11:16;;;;;;;38.97;32.05;;;23.30;72.40;;;;;;5093975;28;20040;-66
2022/08/24 07:13:42;;;;;;;40.17;32.15;;;23.30;72.50;;;;;;5093889;28;20533;-67
2022/08/24 07:16:08;;;;;;;39.00;29.50;;;23.30;72.50;;;;;;5094780;28;20043;-66
2022/08/24 07:18:34;;;;;;;36.20;28.35;;;23.30;72.50;;;;;;5093505;28;20048;-64
2022/08/24 07:21:01;;;;;;;34.97;28.30;;;23.30;72.40;;;;;;5094431;28;20048;-65
2022/08/24 07:23:26;;;;;;;32.45;27.25;;;23.40;72.40;;;;;;5094246;28;20044;-65
2022/08/24 07:25:52;;;;;;;31.30;26.23;;;23.40;72.40;;;;;;5093615;28;20048;-65
2022/08/24 07:28:17;;;;;;;30.92;25.20;;;23.40;72.40;;;;;;5094059;28;20040;-65
2022/08/24 07:30:43;;;;;;;29.02;24.02;;;23.40;72.40;;;;;;5092893;28;20123;-65
2022/08/24 07:33:09;;;;;;;27.17;22.50;;;23.50;72.40;;;;;;5093387;28;20048;-65
2022/08/24 07:35:35;;;;;;;29.02;23.77;;;23.50;72.30;;;;;;5093847;28;20082;-65
2022/08/24 07:38:01;;;;;;;28.10;22.25;;;23.50;72.30;;;;;;5094211;28;20092;-65
2022/08/24 07:40:29;;;;;;;28.42;21.13;;;23.60;72.20;;;;;;5092195;28;20043;-65
2022/08/24 07:42:55;;;;;;;24.90;19.45;;;23.60;72.20;;;;;;5094005;28;20069;-65
2022/08/24 07:45:21;;;;;;;23.27;17.60;;;23.60;72.10;;;;;;5093682;28;20052;-65
2022/08/24 07:47:47;;;;;;;20.58;17.35;;;23.60;72.10;;;;;;5091947;28;20052;-65
2022/08/24 07:50:13;;;;;;;20.25;16.38;;;23.60;72.00;;;;;;5093809;28;20055;-65
2022/08/24 07:52:38;;;;;;;22.58;16.30;;;23.70;71.90;;;;;;5093846;28;20115;-65
2022/08/24 07:55:05;;;;;;;19.35;14.77;;;23.70;71.90;;;;;;5092451;28;20050;-65
2022/08/24 07:57:30;;;;;;;20.00;14.07;;;23.70;71.80;;;;;;5093494;28;20054;-65
2022/08/24 07:59:58;;;;;;;17.13;13.80;;;23.70;71.80;;;;;;5093778;28;20115;-65
2022/08/24 08:02:24;;;;;;;15.38;12.80;;;23.70;71.60;;;;;;5092593;28;20445;-65
2022/08/24 08:04:49;;;;;;;15.95;12.43;;;23.70;71.60;;;;;;5093471;28;20079;-65
2022/08/24 08:07:16;;;;;;;14.02;11.52;;;23.70;71.60;;;;;;5093244;28;20040;-65
2022/08/24 08:09:41;;;;;;;13.00;11.30;;;23.70;71.50;;;;;;5092869;28;20052;-65
2022/08/24 08:12:07;;;;;;;13.77;10.80;;;23.80;71.50;;;;;;5092260;28;20150;-65
2022/08/24 08:14:33;;;;;;;11.98;9.93;;;23.80;72.10;;;;;;5092074;28;20044;-65
2022/08/24 08:16:59;;;;;;;12.52;9.65;;;23.80;71.50;;;;;;5091323;28;20052;-65
2022/08/24 08:19:24;;;;;;;11.38;9.40;;;23.80;71.40;;;;;;5093298;28;20097;-65
2022/08/24 08:24:37;;;;;;;9.73;8.32;;;23.90;71.40;;;;;;5093055;28;20044;-65
2022/08/24 08:27:02;;;;;;;9.03;7.97;;;23.90;71.30;;;;;;5092100;28;20411;-65
2022/08/24 08:29:30;;;;;;;9.10;8.00;;;23.90;71.30;;;;;;5092439;28;20036;-65
2022/08/24 08:31:56;;;;;;;8.80;7.68;;;23.90;71.20;;;;;;5092917;28;20550;-65
2022/08/24 08:34:21;;;;;;;9.60;7.20;;;23.90;71.20;;;;;;5092985;28;20127;-65
2022/08/24 08:36:47;;;;;;;8.85;6.85;;;23.90;71.20;;;;;;5092314;28;20044;-65
2022/08/24 08:39:14;;;;;;;8.50;6.55;;;24.00;71.20;;;;;;5093033;28;20047;-65
2022/08/24 08:42:07;;;;;;;7.30;6.50;;;24.00;71.20;;;;;;5093360;28;20089;-65
2022/08/24 08:44:46;;;;;;;8.18;6.25;;;24.00;71.10;;;;;;5090859;28;20191;-65
2022/08/24 08:47:43;;;;;;;7.82;6.25;;;24.00;71.10;;;;;;5091609;28;20116;-65
2022/08/24 08:50:17;;;;;;;6.50;5.75;;;24.00;71.10;;;;;;5092234;28;20080;-65
2022/08/24 08:53:04;;;;;;;7.00;5.78;;;24.00;71.00;;;;;;5092901;28;20135;-65
2022/08/24 08:55:44;;;;;;;6.53;5.63;;;24.00;71.00;;;;;;5092364;28;20072;-65
2022/08/24 08:58:17;;;;;;;8.68;5.93;;;24.00;71.00;;;;;;5090907;28;20058;-65
2022/08/24 09:01:03;;;;;;;9.95;5.68;;;24.00;70.90;;;;;;5091699;28;20048;-65
2022/08/24 09:03:57;;;;;;;6.85;5.28;;;24.00;70.90;;;;;;5074397;28;20040;-65
2022/08/24 09:07:01;;;;;;;7.20;5.45;;;24.00;70.80;;;;;;5091022;28;20097;-65
2022/08/24 09:09:30;;;;;;;6.65;5.70;;;24.10;70.90;;;;;;5054914;28;20488;-65
2022/08/24 09:12:07;;;;;;;5.57;4.85;;;24.10;70.90;;;;;;5091838;28;20395;-65
2022/08/24 09:14:52;;;;;;;5.35;4.85;;;24.10;70.80;;;;;;5092580;28;20044;-65
2022/08/24 09:17:18;;;;;;;5.93;5.22;;;24.10;70.70;;;;;;5091480;28;20050;-65
2022/08/24 09:19:48;;;;;;;6.28;5.55;;;24.10;70.70;;;;;;5090462;28;20036;-65
2022/08/24 09:22:18;;;;;;;6.00;5.22;;;24.10;70.70;;;;;;5091138;28;20567;-66
2022/08/24 09:24:53;;;;;;;6.30;4.97;;;24.10;70.60;;;;;;5092185;28;20408;-65
2022/08/24 09:27:59;;;;;;;5.55;4.93;;;24.10;70.60;;;;;;5091434;28;20054;-66
2022/08/24 09:30:26;;;;;;;5.82;4.85;;;24.10;70.50;;;;;;5090957;28;20376;-65
2022/08/24 09:33:11;;;;;;;5.93;4.80;;;24.10;70.40;;;;;;5073510;28;20055;-66
2022/08/24 09:36:00;;;;;;;6.20;4.72;;;24.10;70.30;;;;;;5074056;28;20131;-65
2022/08/24 09:38:44;;;;;;;6.85;4.80;;;24.10;70.20;;;;;;5091090;28;20050;-66
2022/08/24 09:41:40;;;;;;;5.90;4.95;;;24.10;70.10;;;;;;5090707;28;20109;-66
2022/08/24 09:44:09;;;;;;;5.15;4.65;;;24.20;70.10;;;;;;5091116;28;20040;-66
2022/08/24 09:46:59;;;;;;;6.18;4.60;;;24.20;70.10;;;;;;5089938;28;20605;-66
2022/08/24 09:50:01;;;;;;;6.22;4.68;;;24.20;70.00;;;;;;5091809;28;20483;-66
2022/08/24 09:52:45;;;;;;;5.95;4.68;;;24.20;69.90;;;;;;5073891;28;20101;-66
2022/08/24 09:55:19;;;;;;;6.00;4.38;;;24.20;69.90;;;;;;5090624;28;20542;-66
2022/08/24 09:57:57;;;;;;;6.43;4.65;;;24.20;70.00;;;;;;5092202;28;20067;-68
2022/08/24 10:00:33;;;;;;;6.90;4.72;;;24.20;70.00;;;;;;5090083;28;20094;-67
2022/08/24 10:03:11;;;;;;;5.93;4.88;;;24.30;70.70;;;;;;5091245;28;20044;-67
2022/08/24 10:06:15;;;;;;;7.63;5.15;;;24.30;70.10;;;;;;5095889;28;20036;-67
2022/08/24 10:08:46;;;;;;;9.77;4.93;;;24.30;70.00;;;;;;5094584;28;20052;-68
2022/08/24 10:11:28;;;;;;;5.65;5.03;;;24.30;70.10;;;;;;5096017;28;20036;-69
2022/08/24 10:14:11;;;;;;;6.95;5.28;;;24.30;69.90;;;;;;5094886;28;20048;-70
2022/08/24 10:16:37;;;;;;;5.95;5.32;;;24.30;69.90;;;;;;5091167;28;20136;-66
2022/08/24 10:19:28;;;;;;;9.13;5.20;;;24.30;70.00;;;;;;5093186;28;20123;-67
2022/08/24 10:22:07;;;;;;;6.47;5.28;;;24.30;70.20;;;;;;5092426;28;20068;-67
2022/08/24 10:24:53;;;;;;;6.35;5.75;;;24.30;70.30;;;;;;5092573;28;20619;-68
2022/08/24 10:27:30;;;;;;;5.90;5.30;;;24.30;70.60;;;;;;5093155;28;20047;-64
2022/08/24 10:30:14;;;;;;;9.70;5.60;;;24.30;70.40;;;;;;5093779;28;20115;-64
2022/08/24 10:32:54;;;;;;;6.80;5.25;;;24.40;70.50;;;;;;5094844;28;20075;-65
2022/08/24 10:35:50;;;;;;;6.63;5.93;;;24.40;70.50;;;;;;5077060;28;20154;-65
2022/08/24 10:41:17;;;;;;;7.70;5.95;;;24.40;70.60;;;;;;5080715;28;20125;-64
2022/08/24 10:44:07;;;;;;;7.50;6.10;;;24.40;70.60;;;;;;5094476;28;20075;-65
2022/08/24 10:46:44;;;;;;;7.45;5.53;;;24.40;70.60;;;;;;5094847;28;20044;-63
2022/08/24 10:49:49;;;;;;;9.10;5.40;;;24.40;70.40;;;;;;5093041;28;20044;-62
2022/08/24 10:52:42;;;;;;;8.00;6.38;;;24.50;70.50;;;;;;5092080;28;20499;-62
2022/08/24 10:55:25;;;;;;;8.10;5.60;;;24.40;70.50;;;;;;5093068;28;20048;-62
2022/08/24 10:58:02;;;;;;;8.05;5.57;;;24.50;70.50;;;;;;5093535;28;20551;-62
2022/08/24 11:00:28;;;;;;;9.25;5.63;;;24.50;70.50;;;;;;5094240;28;20097;-62
2022/08/24 11:03:13;;;;;;;7.20;5.43;;;24.50;70.50;;;;;;5092087;28;20036;-63
2022/08/24 11:05:50;;;;;;;8.32;5.97;;;24.50;70.40;;;;;;5093523;28;20036;-61
2022/08/24 11:08:27;;;;;;;7.93;6.20;;;24.50;70.50;;;;;;5094386;28;20123;-61
2022/08/24 11:11:23;;;;;;;9.15;6.05;;;24.50;70.40;;;;;;5093317;28;20097;-61
2022/08/24 11:14:22;;;;;;;10.15;5.22;;;24.50;70.30;;;;;;5080833;28;20453;-61
2022/08/24 11:16:47;;;;;;;7.30;5.60;;;24.50;70.30;;;;;;5093282;28;20403;-61
2022/08/24 11:19:23;;;;;;;8.32;5.75;;;24.50;70.30;;;;;;5093570;28;20044;-62
2022/08/24 11:21:53;;;;;;;7.80;5.47;;;24.60;70.40;;;;;;5094406;28;20553;-63
2022/08/24 11:24:22;;;;;;;8.18;5.35;;;24.50;70.40;;;;;;5093582;28;20048;-64
2022/08/24 11:27:27;;;;;;;7.00;5.40;;;24.50;70.30;;;;;;5092601;28;20048;-63
2022/08/24 11:29:54;;;;;;;7.82;5.55;;;24.60;70.30;;;;;;5091728;28;20070;-62
2022/08/24 11:32:37;;;;;;;7.93;4.93;;;24.60;70.30;;;;;;5092735;28;20098;-61
2022/08/24 11:35:10;;;;;;;6.85;5.30;;;24.60;70.20;;;;;;5093607;28;20476;-62
2022/08/24 11:37:36;;;;;;;8.43;5.78;;;24.60;70.20;;;;;;5093516;28;20085;-62
2022/08/24 11:40:04;;;;;;;6.63;5.30;;;24.60;70.10;;;;;;5092668;28;20542;-62
2022/08/24 11:42:59;;;;;;;6.70;5.18;;;24.60;70.00;;;;;;5093644;28;20135;-62
2022/08/24 11:45:42;;;;;;;8.13;5.22;;;24.60;70.00;;;;;;5092864;28;20051;-62
2022/08/24 11:48:30;;;;;;;6.88;5.18;;;24.60;70.00;;;;;;5092041;28;20131;-62
2022/08/24 11:50:56;;;;;;;7.40;4.43;;;24.60;69.90;;;;;;5093149;28;20088;-62
2022/08/24 11:53:49;;;;;;;6.00;5.35;;;24.70;70.00;;;;;;5091658;28;20127;-62
2022/08/24 11:56:31;;;;;;;7.38;5.38;;;24.60;70.00;;;;;;5069586;28;20055;-62
2022/08/24 11:59:24;;;;;;;7.38;5.40;;;24.70;70.10;;;;;;5092166;28;20063;-62
2022/08/24 12:01:58;;;;;;;6.43;5.25;;;24.70;70.10;;;;;;5093185;28;20054;-61
2022/08/24 12:04:32;;;;;;;7.15;5.28;;;24.70;70.10;;;;;;5092418;28;20135;-62
2022/08/24 12:07:20;;;;;;;6.93;4.72;;;24.70;70.10;;;;;;5092602;28;20040;-62
2022/08/24 12:09:51;;;;;;;6.15;5.13;;;24.70;70.00;;;;;;5093870;28;20105;-62
2022/08/24 12:12:35;;;;;;;6.70;5.13;;;24.70;70.00;;;;;;5091837;28;20083;-63
2022/08/24 12:15:22;;;;;;;6.72;5.00;;;24.70;70.00;;;;;;5092857;28;20126;-62
2022/08/24 12:17:57;;;;;;;6.28;4.90;;;24.80;70.00;;;;;;5092341;28;20044;-61
2022/08/24 12:20:32;;;;;;;5.88;4.72;;;24.80;70.00;;;;;;5067663;28;20040;-65
2022/08/24 12:23:01;;;;;;;6.32;4.65;;;24.80;69.90;;;;;;5092361;28;20051;-62
2022/08/24 12:28:13;;;;;;;6.07;4.53;;;24.80;69.80;;;;;;5071670;28;20040;-63
2022/08/24 12:30:39;;;;;;;5.88;4.50;;;24.80;69.80;;;;;;5091420;28;20051;-63
2022/08/24 12:33:06;;;;;;;6.30;4.70;;;24.80;69.80;;;;;;5074244;28;20423;-62
2022/08/24 12:35:41;;;;;;;7.15;4.85;;;24.80;69.70;;;;;;5073744;28;20051;-62
2022/08/24 12:38:22;;;;;;;5.53;4.68;;;24.80;69.70;;;;;;5090928;28;20036;-61
2022/08/24 12:40:55;;;;;;;5.90;4.55;;;24.80;69.70;;;;;;5090809;28;20040;-62
2022/08/24 12:43:40;;;;;;;5.68;4.55;;;24.80;69.60;;;;;;5090060;28;20101;-62
2022/08/24 12:46:06;;;;;;;5.43;4.45;;;24.90;69.60;;;;;;5090333;28;20042;-62
2022/08/24 12:48:32;;;;;;;6.57;4.32;;;24.80;69.60;;;;;;5090923;28;20036;-63
2022/08/24 12:51:21;;;;;;;4.70;4.20;;;24.90;69.70;;;;;;5091360;28;20111;-63
2022/08/24 12:54:38;;;;;;;5.75;4.28;;;24.90;69.60;;;;;;5091726;28;20505;-63
2022/08/24 12:57:07;;;;;;;7.38;4.47;;;24.90;69.70;;;;;;5050772;28;20079;-63
2022/08/24 12:59:46;;;;;;;4.95;4.20;;;24.90;69.60;;;;;;5090824;28;20097;-62
2022/08/24 13:02:17;;;;;;;6.53;4.57;;;24.90;69.60;;;;;;5088858;28;20449;-63
2022/08/24 13:04:47;;;;;;;4.95;4.20;;;24.90;69.60;;;;;;5091379;28;20385;-60
2022/08/24 13:07:26;;;;;;;7.07;3.90;;;24.90;69.50;;;;;;5092267;28;20044;-62
2022/08/24 13:09:54;;;;;;;6.15;4.28;;;25.00;69.40;;;;;;5091399;28;20048;-62
2022/08/24 13:12:40;;;;;;;4.32;3.92;;;24.90;69.30;;;;;;5091563;28;20071;-62